Route Details

Aircraft Information
Group: North America Fleet
Types: B738, B752, B762, B763
Route Data
Distance: 827nm
Duration: 2h 35m
Origin METAR: KCVG 160052Z 36010KT 10SM FEW085 BKN300 23/16 A2996 RMK AO2 SLP137 T02280161
Dest. METAR: KMIA 160053Z 00000KT 10SM FEW025 BKN250 27/24 A2993 RMK AO2 SLP136 T02720244
Freight Data
(for Aug 16, 2022)
Load Factor:
40%
Manifested Cargo: 48,942lbs
Financial History
Total Freight: 717,262lbs
Average Load: 0lbs/flt
Fuel Used: 345,165lbs
Avg. Fuel Used: 0lbs/flt
Fuel Expense: $238,780
Avg. Fuel Expense: $0
Avg. Fuel Cost: $0/lbs
Total Gross Income: $1,207,832
Pilot Pay: $1,481
Total Expenses: $163,430
Total Revenue: $802,367
Average Revenue: $0

Capitol Logistics 479




KCVG
Cincinnati/Northern Kentucky International Airport
Covington, Kentucky
KMIA
Miami International Airport
Miami, Florida